M05 weather

Caruthersville Memorial Airport
Caruthersville, Missouri, United States

Public forecast

Using degrees Fahrenheit for public forecast. Weather courtesy of forecast.io.

Closest aviation weather report (METAR) to Caruthersville Memorial Airport

Closest report is Blytheville Municipal Airport, 15.6 nm (29.0 km) SSW. Retrieved 2020/06/05 11:53 UTC (52 minutes ago):

KHKA 051153Z AUTO 00000KT 10SM SCT037 BKN046 23/20 A2991 RMK AO2 SLP125 70043 T02330200 10233 20217 53012

Closest aviation forecast (TAF) to Caruthersville Memorial Airport

Closest forecast is McKellar-Sipes Regional Airport, 50.4 nm (93.3 km) SE. Retrieved 2020/06/05 12:27 UTC (18 minutes ago):

TAF KMKL 051124Z 0512/0612 00000KT P6SM FEW025 BKN060 TEMPO 0512/0514 3SM BR BKN025 FM051800 24004KT P6SM VCTS FEW030CB SCT100 FM060300 VRB03KT P6SM SCT250 FM060500 VRB03KT P6SM BKN200 FM061100 00000KT P6SM SCT150